Hlavní strana
METAR-TAF:

METAR-TAF

Letiště :

Vojens, Dánsko

zeměpisná šířka: 55-14N, zeměpisná délka: 009-16E, výška: 43 m

Aktuální stav počasí

Zpráva byla vytvořena před 30 minutami, v 18:20 UTC
Východoseverovýchodní vítr 2 kt
Teplota 1°C
Vlhkost vzduchu 69%
Tlak 1019 hPa
Viditelnost 10 km a více
Žádná oblačnost pod 1500 m, nevyskytují se cumulonimby.

METAR: EKSP 071820Z 06002KT CAVOK 01/M04 Q1019

Čas: 19:50 (18:50 UTC)

Předpověď počasí

Zpráva byla vytvořena před 1 hodinou a 48 minutami, v 17:02 UTC
Předpověď platná od 07 v 18 UTC do 08 v 18 UTC
Severozápadní vítr 8 kt
Viditelnost 10 km a více
Skoro jasno ve výšce 4000 ft
Polojasno ve výšce 20000 ft
Změna
od 07 v 18 UTC do 07 v 21 UTC
vítr z různých směrů 4 kt

TAF: EKSP 071702Z 0718/0818 31008KT 9999 FEW040 SCT200 BECMG 0718/0721 VRB04KT

Stav a předpovědi počasí z více než 4 000 letišť (zprávy METAR a TAF).

Červené a žluté tečky na mapě představují dostupné meteorologické stanice.

Když kurzor umístíte na tečku, zobrazí se název stanice.

Pak kliknutím zobrazíte stav a předpověď počasí.

Chcete-li změnit mapu, kliknutím na zelené tlačítko se znaménkem +mapu přiblížíte, kliknutím na zelené tlačítko se znaménkem – mapu oddálíte a kliknutím na zelené šipky přejdete na sousední mapy.


METAR-TAF: